Time;durP1;ratioP1;P1;durP2;ratioP2;P2;SDS_P1;SDS_P2;PMS_P1;PMS_P2;Temp;Humidity;BMP_temperature;BMP_pressure;BME280_temperature;BME280_humidity;BME280_pressure;Samples;Min_cycle;Max_cycle;Signal;HPM_P1;HPM_P2
2020/12/28 00:00:17;;;;;;;7.57;4.15;;;7.60;54.50;;;;;;5080359;28;20031;-77
2020/12/28 00:02:42;;;;;;;5.90;2.95;;;7.60;54.40;;;;;;5079819;28;20396;-76
2020/12/28 00:05:13;;;;;;;9.00;4.40;;;7.60;54.40;;;;;;5063069;28;20063;-77
2020/12/28 00:07:40;;;;;;;4.55;2.35;;;7.70;54.40;;;;;;5060026;28;20024;-76
2020/12/28 00:10:09;;;;;;;3.75;2.15;;;7.70;54.20;;;;;;5059411;28;20017;-77
2020/12/28 00:12:48;;;;;;;2.50;1.48;;;7.70;54.10;;;;;;5056281;28;20025;-86
2020/12/28 00:15:15;;;;;;;2.78;1.35;;;7.80;54.10;;;;;;5058030;28;20021;-75
2020/12/28 00:17:47;;;;;;;3.92;2.30;;;7.90;54.10;;;;;;5056799;28;20045;-74
2020/12/28 00:20:13;;;;;;;3.58;2.35;;;7.90;54.00;;;;;;5057161;28;20021;-82
2020/12/28 00:22:41;;;;;;;4.43;2.50;;;7.90;53.80;;;;;;5060190;28;20025;-80
2020/12/28 00:25:07;;;;;;;2.92;1.90;;;8.00;53.80;;;;;;5053849;28;20048;-78
2020/12/28 00:27:33;;;;;;;3.10;2.10;;;8.00;53.70;;;;;;5056057;28;20499;-80
2020/12/28 00:29:59;;;;;;;3.03;2.00;;;8.00;53.60;;;;;;5057252;28;20036;-73
2020/12/28 00:32:25;;;;;;;3.30;1.90;;;8.00;53.50;;;;;;5056384;28;20021;-76
2020/12/28 00:34:51;;;;;;;2.42;1.65;;;8.00;53.40;;;;;;5058094;28;20024;-78
2020/12/28 00:37:16;;;;;;;1.80;1.30;;;8.00;53.50;;;;;;5057766;28;20076;-80
2020/12/28 00:39:42;;;;;;;5.03;3.08;;;8.10;53.40;;;;;;5056963;28;20025;-75
2020/12/28 00:42:08;;;;;;;6.30;3.40;;;8.00;53.30;;;;;;5055838;28;20028;-84
2020/12/28 00:44:34;;;;;;;3.38;2.25;;;8.00;53.30;;;;;;5055939;28;20025;-76
2020/12/28 00:46:59;;;;;;;4.13;2.65;;;8.00;53.40;;;;;;5056058;28;20025;-76
2020/12/28 00:49:25;;;;;;;3.42;2.15;;;8.00;53.30;;;;;;5055891;28;20077;-81
2020/12/28 00:51:51;;;;;;;4.22;1.52;;;8.00;53.40;;;;;;5056743;28;20021;-77
2020/12/28 00:54:16;;;;;;;3.08;1.80;;;7.90;53.30;;;;;;5073131;28;20031;-80
2020/12/28 00:56:42;;;;;;;2.83;1.50;;;7.90;53.40;;;;;;5064745;28;20466;-73
2020/12/28 00:59:08;;;;;;;2.92;1.65;;;7.90;53.40;;;;;;5055538;28;20029;-78
2020/12/28 01:01:33;;;;;;;2.80;1.60;;;7.90;53.30;;;;;;5056212;28;20021;-83
2020/12/28 01:03:59;;;;;;;2.22;1.55;;;8.00;53.50;;;;;;5054950;28;20029;-77
2020/12/28 01:06:25;;;;;;;2.58;1.40;;;8.00;53.50;;;;;;5055150;28;20155;-83
2020/12/28 01:08:51;;;;;;;4.63;2.90;;;8.00;53.50;;;;;;5055025;28;20021;-85
2020/12/28 01:11:21;;;;;;;5.80;3.53;;;8.00;53.40;;;;;;5055639;28;20021;-79
2020/12/28 01:13:47;;;;;;;5.03;2.80;;;8.00;53.30;;;;;;5055306;28;20017;-77
2020/12/28 01:16:13;;;;;;;5.35;2.97;;;8.00;53.40;;;;;;5055188;28;20458;-76
2020/12/28 01:18:41;;;;;;;6.00;3.05;;;8.00;53.30;;;;;;5055498;28;20040;-79
2020/12/28 01:21:07;;;;;;;4.95;3.03;;;8.10;53.30;;;;;;5059478;28;20369;-82
2020/12/28 01:23:32;;;;;;;4.57;2.90;;;8.00;53.30;;;;;;5055264;28;20029;-76
2020/12/28 01:25:58;;;;;;;3.95;2.33;;;8.00;53.20;;;;;;5064733;28;20115;-74
2020/12/28 01:28:24;;;;;;;3.38;1.80;;;8.00;53.20;;;;;;5066476;28;20041;-73
2020/12/28 01:30:50;;;;;;;3.45;1.85;;;8.00;53.20;;;;;;5066291;28;20042;-72
2020/12/28 01:33:16;;;;;;;3.25;2.03;;;7.90;53.20;;;;;;5063241;28;20076;-79
2020/12/28 01:35:41;;;;;;;3.05;1.80;;;7.90;53.30;;;;;;5055536;28;20036;-79
2020/12/28 01:38:07;;;;;;;2.60;1.40;;;7.90;53.30;;;;;;5056557;28;20025;-81
2020/12/28 01:40:33;;;;;;;3.13;1.60;;;7.90;53.40;;;;;;5055397;28;20366;-83
2020/12/28 01:42:59;;;;;;;3.33;2.20;;;7.80;53.40;;;;;;5055845;28;20094;-81
2020/12/28 01:45:25;;;;;;;5.07;1.77;;;7.80;53.50;;;;;;5055324;28;20553;-79
2020/12/28 01:47:51;;;;;;;2.45;1.80;;;7.80;53.50;;;;;;5053575;28;20470;-83
2020/12/28 01:50:17;;;;;;;3.45;2.13;;;7.80;53.60;;;;;;5055186;28;20025;-80
2020/12/28 01:52:43;;;;;;;3.22;1.80;;;7.70;53.50;;;;;;5074838;28;20025;-76
2020/12/28 01:55:09;;;;;;;4.20;2.30;;;7.70;53.70;;;;;;5074032;28;20044;-77
2020/12/28 01:57:35;;;;;;;5.60;2.25;;;7.70;53.80;;;;;;5072658;28;20029;-74
2020/12/28 02:00:03;;;;;;;3.70;2.47;;;7.60;53.80;;;;;;5055242;28;20026;-79
2020/12/28 02:02:30;;;;;;;3.42;2.08;;;7.60;53.80;;;;;;5061256;28;20400;-82
2020/12/28 02:04:56;;;;;;;5.97;2.50;;;7.60;53.90;;;;;;5054961;28;20029;-77
2020/12/28 02:07:23;;;;;;;3.78;2.05;;;7.60;53.90;;;;;;5053721;28;20112;-82
2020/12/28 02:09:49;;;;;;;2.08;1.73;;;7.50;54.00;;;;;;5055082;28;20032;-83
2020/12/28 02:12:15;;;;;;;2.90;1.50;;;7.50;54.00;;;;;;5054403;28;20052;-78
2020/12/28 02:14:41;;;;;;;2.13;1.40;;;7.60;54.10;;;;;;5057344;28;20025;-77
2020/12/28 02:17:07;;;;;;;2.63;1.50;;;7.50;54.10;;;;;;5054705;28;20063;-81
2020/12/28 02:19:32;;;;;;;3.22;1.70;;;7.60;54.20;;;;;;5054909;28;20444;-82
2020/12/28 02:21:58;;;;;;;1.80;1.20;;;7.60;54.20;;;;;;5054353;28;20024;-77
2020/12/28 02:24:24;;;;;;;3.05;1.52;;;7.60;54.20;;;;;;5054779;28;20029;-79
2020/12/28 02:26:50;;;;;;;3.40;2.03;;;7.60;54.30;;;;;;5056798;28;20029;-78
2020/12/28 02:29:16;;;;;;;4.18;1.70;;;7.60;54.20;;;;;;5059617;28;20017;-83
2020/12/28 02:31:41;;;;;;;2.60;1.80;;;7.60;54.20;;;;;;5054392;28;20022;-77
2020/12/28 02:34:07;;;;;;;2.15;1.70;;;7.60;54.20;;;;;;5057593;28;20370;-79
2020/12/28 02:36:33;;;;;;;2.97;1.38;;;7.60;54.20;;;;;;5066952;28;20501;-85
2020/12/28 02:38:59;;;;;;;2.72;1.52;;;7.60;54.20;;;;;;5074156;28;20033;-81
2020/12/28 02:41:25;;;;;;;3.38;1.50;;;7.70;54.20;;;;;;5074130;28;20052;-81
2020/12/28 02:43:51;;;;;;;5.90;2.65;;;7.70;54.20;;;;;;5078991;28;20028;-74
2020/12/28 02:46:18;;;;;;;5.35;2.42;;;7.70;54.20;;;;;;5085108;28;20028;-73
2020/12/28 02:48:44;;;;;;;8.82;4.20;;;7.70;54.20;;;;;;5085241;28;20040;-79
2020/12/28 02:51:13;;;;;;;13.52;6.30;;;7.70;54.20;;;;;;5075208;28;20021;-78
2020/12/28 02:53:39;;;;;;;8.25;4.45;;;7.80;54.20;;;;;;5075257;28;20012;-79
2020/12/28 02:56:06;;;;;;;6.75;3.00;;;7.80;54.10;;;;;;5073421;28;20142;-83
2020/12/28 02:58:32;;;;;;;5.35;2.75;;;7.80;54.10;;;;;;5054944;28;20025;-83
2020/12/28 03:00:58;;;;;;;4.75;2.70;;;7.80;54.10;;;;;;5066871;28;20024;-76
2020/12/28 03:03:24;;;;;;;3.30;2.00;;;7.80;54.20;;;;;;5056837;28;20025;-76
2020/12/28 03:05:50;;;;;;;2.63;1.63;;;7.90;54.20;;;;;;5056778;28;20032;-83
2020/12/28 03:08:16;;;;;;;2.83;1.50;;;7.90;54.10;;;;;;5057312;28;20378;-79
2020/12/28 03:10:41;;;;;;;1.75;1.38;;;7.90;54.10;;;;;;5071104;28;20031;-81
2020/12/28 03:13:07;;;;;;;2.90;1.52;;;7.90;54.10;;;;;;5058064;28;20032;-84
2020/12/28 03:15:33;;;;;;;3.55;1.75;;;7.90;54.10;;;;;;5046815;28;20018;-79
2020/12/28 03:17:59;;;;;;;2.80;1.75;;;8.00;54.00;;;;;;5045078;28;20045;-82
2020/12/28 03:20:24;;;;;;;2.50;1.73;;;8.00;54.00;;;;;;5077532;28;20024;-77
2020/12/28 03:22:50;;;;;;;3.85;2.03;;;8.00;53.90;;;;;;5076907;28;20033;-76
2020/12/28 03:25:16;;;;;;;5.85;2.08;;;8.00;53.90;;;;;;5077503;28;20100;-80
2020/12/28 03:27:41;;;;;;;2.95;1.50;;;8.00;53.90;;;;;;5057331;28;20029;-84
2020/12/28 03:30:07;;;;;;;1.73;1.38;;;8.00;53.80;;;;;;5057019;28;20029;-87
2020/12/28 03:32:33;;;;;;;3.20;1.67;;;8.10;53.70;;;;;;5057055;28;20469;-82
2020/12/28 03:34:58;;;;;;;2.70;1.60;;;8.10;53.70;;;;;;5057388;28;20013;-83
2020/12/28 03:37:24;;;;;;;2.78;1.70;;;8.10;53.60;;;;;;5056869;28;20440;-80
2020/12/28 03:39:50;;;;;;;2.92;1.42;;;8.10;53.60;;;;;;5056601;28;20031;-78
2020/12/28 03:42:16;;;;;;;1.98;1.50;;;8.10;53.50;;;;;;5056636;28;20029;-76
2020/12/28 03:44:41;;;;;;;3.22;1.90;;;8.10;53.40;;;;;;5070163;28;20032;-80
2020/12/28 03:47:07;;;;;;;3.40;2.13;;;8.10;53.50;;;;;;5076545;28;20072;-79
2020/12/28 03:49:33;;;;;;;5.40;2.03;;;8.10;53.70;;;;;;5076703;28;20117;-79
2020/12/28 03:51:58;;;;;;;3.10;1.92;;;8.10;53.60;;;;;;5076922;28;20461;-80
2020/12/28 03:54:24;;;;;;;5.03;2.45;;;8.10;53.60;;;;;;5075533;28;20025;-79
2020/12/28 03:56:50;;;;;;;4.50;1.90;;;8.10;53.50;;;;;;5057117;28;20388;-82
2020/12/28 03:59:15;;;;;;;2.72;1.40;;;8.10;53.50;;;;;;5056415;28;20026;-81
2020/12/28 04:01:41;;;;;;;3.05;1.48;;;8.10;53.60;;;;;;5057198;28;20024;-81
2020/12/28 04:04:07;;;;;;;4.63;2.53;;;8.10;53.60;;;;;;5057004;28;20029;-86
2020/12/28 04:06:33;;;;;;;5.03;2.83;;;8.10;53.40;;;;;;5056343;28;20036;-81
2020/12/28 04:08:58;;;;;;;4.47;2.42;;;8.00;53.10;;;;;;5055151;28;20023;-78
2020/12/28 04:11:24;;;;;;;4.97;2.95;;;8.00;53.30;;;;;;5056415;28;20017;-77
2020/12/28 04:13:50;;;;;;;5.50;2.90;;;8.00;53.30;;;;;;5056578;28;20059;-82
2020/12/28 04:16:16;;;;;;;5.25;2.45;;;8.00;53.20;;;;;;5054590;28;20027;-79
2020/12/28 04:18:42;;;;;;;4.72;2.60;;;8.00;53.20;;;;;;5063544;28;20084;-82
2020/12/28 04:21:08;;;;;;;5.80;2.95;;;8.00;53.30;;;;;;5067535;28;20450;-80
2020/12/28 04:23:34;;;;;;;6.25;2.63;;;8.00;53.30;;;;;;5056436;28;20017;-87
2020/12/28 04:25:59;;;;;;;5.13;2.40;;;8.00;53.20;;;;;;5055436;28;20051;-81
2020/12/28 04:28:25;;;;;;;3.45;1.63;;;8.00;53.20;;;;;;5055569;28;20435;-75
2020/12/28 04:30:51;;;;;;;2.83;1.67;;;8.00;53.20;;;;;;5055848;28;20021;-86
2020/12/28 04:33:17;;;;;;;3.38;2.10;;;7.90;53.30;;;;;;5055868;28;20017;-81
2020/12/28 04:35:42;;;;;;;3.15;2.13;;;8.00;53.30;;;;;;5056160;28;20021;-76
2020/12/28 04:38:08;;;;;;;3.38;2.08;;;7.90;53.40;;;;;;5055922;28;20029;-81
2020/12/28 04:40:34;;;;;;;4.63;2.15;;;7.90;53.40;;;;;;5070401;28;20502;-82
2020/12/28 04:43:02;;;;;;;3.42;2.13;;;7.90;53.50;;;;;;5075756;28;20028;-87
2020/12/28 04:45:28;;;;;;;4.13;2.20;;;7.90;53.60;;;;;;5075635;28;20507;-83
2020/12/28 04:47:55;;;;;;;2.75;1.80;;;7.80;53.50;;;;;;5075508;28;20024;-85
2020/12/28 04:50:21;;;;;;;5.07;3.20;;;7.80;53.60;;;;;;5075311;28;20048;-81
2020/12/28 04:52:46;;;;;;;6.28;3.53;;;7.80;53.60;;;;;;5077706;28;20538;-80
2020/12/28 04:55:12;;;;;;;7.05;2.70;;;7.80;53.70;;;;;;5064824;28;20109;-81
2020/12/28 04:57:38;;;;;;;6.47;3.47;;;7.70;53.60;;;;;;5055247;28;20053;-76
2020/12/28 05:00:04;;;;;;;5.25;3.00;;;7.70;53.70;;;;;;5055114;28;20029;-81
2020/12/28 05:02:32;;;;;;;5.45;2.42;;;7.70;53.80;;;;;;5055601;28;20063;-82
2020/12/28 05:05:07;;;;;;;6.97;3.42;;;7.70;53.80;;;;;;5055363;28;20055;-82
2020/12/28 05:07:33;;;;;;;19.15;8.45;;;7.60;53.70;;;;;;5055337;28;20104;-79
2020/12/28 05:10:02;;;;;;;16.55;8.93;;;7.60;53.80;;;;;;5055348;28;20096;-79
2020/12/28 05:12:28;;;;;;;12.15;6.57;;;7.60;53.60;;;;;;5055229;28;20466;-75
2020/12/28 05:15:09;;;;;;;14.80;6.60;;;7.60;53.60;;;;;;5055358;28;20029;-82
2020/12/28 05:17:35;;;;;;;15.70;6.57;;;7.60;53.60;;;;;;5054862;28;20563;-79
2020/12/28 05:20:02;;;;;;;11.45;6.13;;;7.60;53.60;;;;;;5053749;28;20042;-80
2020/12/28 05:22:28;;;;;;;14.20;6.10;;;7.60;53.50;;;;;;5055062;28;20496;-80
2020/12/28 05:24:57;;;;;;;9.00;5.15;;;7.60;53.40;;;;;;5054986;28;20029;-83
2020/12/28 05:27:24;;;;;;;9.77;5.90;;;7.60;53.40;;;;;;5059502;28;20473;-81
2020/12/28 05:29:50;;;;;;;10.73;6.93;;;7.50;53.40;;;;;;5074898;28;20469;-79
2020/12/28 05:32:17;;;;;;;11.57;6.70;;;7.60;53.50;;;;;;5075450;28;20021;-82
2020/12/28 05:34:46;;;;;;;11.23;5.63;;;7.60;53.40;;;;;;5075203;28;20020;-78
2020/12/28 05:37:17;;;;;;;15.77;8.80;;;7.60;53.50;;;;;;5073197;28;20115;-79
2020/12/28 05:39:43;;;;;;;10.90;6.90;;;7.60;53.40;;;;;;5074593;28;20024;-82
2020/12/28 05:42:11;;;;;;;10.23;5.68;;;7.60;53.20;;;;;;5074566;28;20031;-82
2020/12/28 05:44:41;;;;;;;11.50;6.38;;;7.60;53.10;;;;;;5074628;28;20031;-78
2020/12/28 05:47:13;;;;;;;9.20;6.15;;;7.60;53.10;;;;;;5075175;28;20493;-78
2020/12/28 05:49:42;;;;;;;9.88;5.82;;;7.50;53.10;;;;;;5074687;28;20409;-82
2020/12/28 05:52:09;;;;;;;14.10;7.28;;;7.50;53.10;;;;;;5072636;28;20058;-81
2020/12/28 05:54:36;;;;;;;14.50;7.60;;;7.50;53.20;;;;;;5074507;28;20036;-77
2020/12/28 05:57:06;;;;;;;11.70;6.70;;;7.50;53.20;;;;;;5073231;28;20119;-77
2020/12/28 05:59:33;;;;;;;11.93;6.13;;;7.50;53.20;;;;;;5073262;28;20032;-82
2020/12/28 06:01:59;;;;;;;19.67;10.93;;;7.50;53.30;;;;;;5072727;28;20029;-82
2020/12/28 06:04:26;;;;;;;23.33;13.27;;;7.50;53.30;;;;;;5072295;28;20071;-84
2020/12/28 06:06:59;;;;;;;21.00;9.27;;;7.50;53.30;;;;;;5053044;28;20601;-85
2020/12/28 06:09:26;;;;;;;13.48;7.25;;;7.40;53.40;;;;;;5052717;28;20021;-79
2020/12/28 06:12:11;;;;;;;18.45;8.43;;;7.40;53.50;;;;;;5057759;28;20543;-75
2020/12/28 06:14:39;;;;;;;17.33;8.73;;;7.40;53.50;;;;;;5074296;28;20058;-78
2020/12/28 06:17:05;;;;;;;17.23;7.20;;;7.40;53.60;;;;;;5073736;28;20442;-83
2020/12/28 06:19:31;;;;;;;16.15;7.05;;;7.40;53.60;;;;;;5072970;28;20055;-83
2020/12/28 06:21:56;;;;;;;12.77;6.95;;;7.40;53.70;;;;;;5072912;28;20020;-81
2020/12/28 06:24:28;;;;;;;17.15;7.90;;;7.40;53.80;;;;;;5073855;28;20054;-80
2020/12/28 06:27:05;;;;;;;15.32;6.68;;;7.40;53.80;;;;;;5073974;28;20028;-82
2020/12/28 06:29:31;;;;;;;15.63;6.25;;;7.40;53.80;;;;;;5073834;28;20017;-85
2020/12/28 06:31:58;;;;;;;10.23;6.22;;;7.50;53.90;;;;;;5073837;28;20028;-84
2020/12/28 06:34:24;;;;;;;12.55;6.00;;;7.50;53.90;;;;;;5073341;28;20032;-85
2020/12/28 06:36:59;;;;;;;12.40;5.47;;;7.50;53.90;;;;;;5071800;28;20025;-81
2020/12/28 06:39:25;;;;;;;11.32;6.03;;;7.50;53.90;;;;;;5054877;28;20036;-80
2020/12/28 06:41:51;;;;;;;10.30;5.28;;;7.60;54.00;;;;;;5058212;28;20031;-78
2020/12/28 06:44:26;;;;;;;11.32;5.45;;;7.60;53.90;;;;;;5057826;28;20474;-82
2020/12/28 06:46:53;;;;;;;11.77;5.43;;;7.60;53.80;;;;;;5057753;28;20111;-84
2020/12/28 06:49:19;;;;;;;12.75;5.82;;;7.70;53.80;;;;;;5058340;28;20378;-78
2020/12/28 06:51:45;;;;;;;9.60;5.15;;;7.60;53.70;;;;;;5060632;28;20024;-83
2020/12/28 06:54:10;;;;;;;16.83;5.53;;;7.70;53.70;;;;;;5061299;28;20013;-78
2020/12/28 06:56:36;;;;;;;12.98;6.07;;;7.70;53.60;;;;;;5062135;28;20032;-76
2020/12/28 06:59:02;;;;;;;15.68;6.82;;;7.70;53.50;;;;;;5060258;28;20470;-79
2020/12/28 07:01:28;;;;;;;23.13;6.45;;;7.70;53.20;;;;;;5059236;28;20051;-78
2020/12/28 07:03:57;;;;;;;12.02;6.55;;;7.80;53.20;;;;;;5077196;28;20020;-77
2020/12/28 07:06:23;;;;;;;15.68;7.68;;;7.80;53.10;;;;;;5077837;28;20025;-85
2020/12/28 07:08:48;;;;;;;16.58;9.15;;;7.80;53.10;;;;;;5077685;28;20066;-82
2020/12/28 07:11:20;;;;;;;16.33;7.80;;;7.80;53.10;;;;;;5077535;28;20028;-82
2020/12/28 07:13:47;;;;;;;13.50;6.70;;;7.80;53.00;;;;;;5076152;28;20060;-75
2020/12/28 07:16:13;;;;;;;11.13;5.97;;;7.90;53.00;;;;;;5087002;28;20020;-74
2020/12/28 07:18:40;;;;;;;14.48;6.32;;;7.90;53.10;;;;;;5086758;28;20052;-75
2020/12/28 07:21:07;;;;;;;12.50;6.75;;;7.90;53.00;;;;;;5084033;28;20045;-77
2020/12/28 07:23:34;;;;;;;12.40;6.82;;;7.90;52.90;;;;;;5069914;28;20029;-80
2020/12/28 07:26:07;;;;;;;14.73;7.97;;;7.90;53.00;;;;;;5055995;28;20482;-85
2020/12/28 07:28:34;;;;;;;21.30;11.73;;;7.90;53.00;;;;;;5057269;28;20025;-83
2020/12/28 07:31:01;;;;;;;28.38;13.32;;;7.90;53.20;;;;;;5057078;28;20021;-82
2020/12/28 07:33:27;;;;;;;22.83;11.48;;;8.00;53.20;;;;;;5057184;28;20025;-81
2020/12/28 07:36:13;;;;;;;31.05;16.05;;;8.00;53.20;;;;;;5056875;28;20044;-83
2020/12/28 07:38:43;;;;;;;18.13;9.55;;;8.10;53.30;;;;;;5057158;28;20021;-82
2020/12/28 07:41:13;;;;;;;17.65;8.63;;;8.10;53.20;;;;;;5056917;28;20071;-80
2020/12/28 07:43:39;;;;;;;13.70;7.05;;;8.10;53.30;;;;;;5055517;28;20048;-80
2020/12/28 07:46:28;;;;;;;11.68;5.15;;;8.10;53.30;;;;;;5056899;28;20430;-78
2020/12/28 07:48:57;;;;;;;17.50;7.85;;;8.20;53.30;;;;;;5064681;28;20033;-80
2020/12/28 07:51:26;;;;;;;32.65;16.27;;;8.20;53.20;;;;;;5055068;28;20473;-82
2020/12/28 07:54:00;;;;;;;19.00;10.43;;;8.20;53.20;;;;;;5058151;28;20423;-80
2020/12/28 07:56:33;;;;;;;26.50;13.98;;;8.20;53.10;;;;;;5059333;28;20434;-80
2020/12/28 07:59:14;;;;;;;11.82;5.90;;;8.30;53.10;;;;;;5056619;28;20171;-77
2020/12/28 08:01:48;;;;;;;10.98;6.03;;;8.30;52.80;;;;;;5056950;28;20017;-77
2020/12/28 08:04:22;;;;;;;11.30;5.93;;;8.30;52.70;;;;;;5055239;28;20401;-78
2020/12/28 08:06:49;;;;;;;10.30;5.87;;;8.20;52.60;;;;;;5056429;28;20108;-81
2020/12/28 08:09:20;;;;;;;11.68;5.53;;;8.20;52.40;;;;;;5056176;28;20255;-83
2020/12/28 08:11:57;;;;;;;7.88;3.20;;;8.20;52.40;;;;;;5055495;28;20032;-82
2020/12/28 08:14:23;;;;;;;7.13;3.47;;;8.20;52.30;;;;;;5067063;28;20039;-81
2020/12/28 08:16:49;;;;;;;6.38;3.97;;;8.20;52.40;;;;;;5070292;28;20033;-84
2020/12/28 08:19:26;;;;;;;5.93;3.08;;;8.20;52.30;;;;;;5055057;28;20413;-82
2020/12/28 08:21:52;;;;;;;5.95;3.28;;;8.20;52.30;;;;;;5056673;28;20029;-86
2020/12/28 08:24:19;;;;;;;6.97;3.40;;;8.20;52.30;;;;;;5056301;28;20096;-76
2020/12/28 08:26:46;;;;;;;7.15;3.55;;;8.20;52.10;;;;;;5055230;28;20024;-76
2020/12/28 08:29:13;;;;;;;6.57;4.00;;;8.20;52.30;;;;;;5054954;28;20123;-82
2020/12/28 08:31:39;;;;;;;7.68;4.47;;;8.30;52.50;;;;;;5055131;28;20017;-80
2020/12/28 08:34:12;;;;;;;7.28;4.18;;;8.30;52.50;;;;;;5056463;28;20091;-77
2020/12/28 08:36:42;;;;;;;12.40;6.32;;;8.40;52.50;;;;;;5056590;28;20075;-79
2020/12/28 08:39:11;;;;;;;9.65;5.05;;;8.40;52.40;;;;;;5063142;28;20032;-83
2020/12/28 08:41:37;;;;;;;6.85;3.50;;;8.50;52.30;;;;;;5076223;28;20473;-75
2020/12/28 08:44:02;;;;;;;5.28;3.05;;;8.60;52.20;;;;;;5076227;28;20035;-79
2020/12/28 08:46:28;;;;;;;4.35;2.70;;;8.60;51.90;;;;;;5076017;28;20033;-73
2020/12/28 08:48:54;;;;;;;6.18;3.03;;;8.70;51.60;;;;;;5063531;28;20050;-80
2020/12/28 08:51:20;;;;;;;8.85;2.90;;;8.80;51.50;;;;;;5056128;28;20478;-85
2020/12/28 08:53:50;;;;;;;7.38;4.28;;;8.80;51.40;;;;;;5055890;28;20028;-78
2020/12/28 08:56:17;;;;;;;8.60;3.92;;;8.90;50.90;;;;;;5056187;28;20100;-82
2020/12/28 08:58:44;;;;;;;10.63;4.95;;;8.90;50.80;;;;;;5054631;28;20101;-80
2020/12/28 09:01:10;;;;;;;16.88;8.45;;;9.00;50.70;;;;;;5056033;28;20032;-82
2020/12/28 09:03:36;;;;;;;15.48;8.88;;;9.10;50.80;;;;;;5054569;28;20020;-78
2020/12/28 09:06:03;;;;;;;11.23;6.40;;;9.10;50.70;;;;;;5055559;28;20566;-81
2020/12/28 09:08:29;;;;;;;10.02;5.00;;;9.20;50.60;;;;;;5055469;28;20460;-77
2020/12/28 09:10:55;;;;;;;12.50;3.85;;;9.20;50.30;;;;;;5055772;28;20013;-83
2020/12/28 09:13:21;;;;;;;14.52;6.22;;;9.30;49.50;;;;;;5055642;28;20025;-81
2020/12/28 09:15:47;;;;;;;6.38;3.65;;;9.40;49.60;;;;;;5054226;28;20116;-83
2020/12/28 09:18:13;;;;;;;15.02;7.35;;;9.40;49.20;;;;;;5054744;28;20053;-81
2020/12/28 09:20:38;;;;;;;14.73;6.75;;;9.50;49.60;;;;;;5066167;28;20150;-78
2020/12/28 09:23:32;;;;;;;13.43;7.82;;;9.60;49.50;;;;;;5093112;27;20442;-81
2020/12/28 09:26:00;;;;;;;22.08;11.25;;;9.60;49.60;;;;;;5092897;28;20028;-84
2020/12/28 09:28:25;;;;;;;16.83;9.40;;;9.70;49.70;;;;;;5092679;28;20031;-81
2020/12/28 09:30:51;;;;;;;10.13;6.22;;;9.80;49.60;;;;;;5092048;28;20048;-81
2020/12/28 09:33:17;;;;;;;20.58;12.10;;;9.80;49.40;;;;;;5092644;28;20495;-87
2020/12/28 09:35:43;;;;;;;19.42;11.38;;;9.90;49.00;;;;;;5092442;28;20380;-80
2020/12/28 09:38:08;;;;;;;18.83;11.60;;;10.00;48.80;;;;;;5092303;28;20020;-76
2020/12/28 09:40:34;;;;;;;23.00;12.38;;;10.00;48.80;;;;;;5092417;28;20024;-83
2020/12/28 09:43:00;;;;;;;20.00;12.43;;;10.10;48.60;;;;;;5091854;28;20020;-79
2020/12/28 09:45:37;;;;;;;24.08;12.82;;;10.20;48.60;;;;;;5096898;28;20027;-74
2020/12/28 09:48:06;;;;;;;25.27;13.65;;;10.20;48.60;;;;;;5100297;28;20392;-77
2020/12/28 09:50:34;;;;;;;19.13;9.40;;;10.30;48.30;;;;;;5076691;28;20547;-82
2020/12/28 09:52:59;;;;;;;15.65;9.35;;;10.30;48.10;;;;;;5092809;28;20024;-84
2020/12/28 09:55:25;;;;;;;13.40;7.80;;;10.40;48.10;;;;;;5097549;28;20024;-80
2020/12/28 09:57:52;;;;;;;10.82;6.28;;;10.40;47.90;;;;;;5097332;28;20029;-77
2020/12/28 10:00:20;;;;;;;7.45;4.43;;;10.50;47.30;;;;;;5100457;28;20020;-74
2020/12/28 10:02:46;;;;;;;10.82;4.47;;;10.50;47.30;;;;;;5096614;28;20024;-78
2020/12/28 10:05:12;;;;;;;15.38;7.38;;;10.50;47.30;;;;;;5093754;28;20485;-81
2020/12/28 10:07:38;;;;;;;20.25;9.93;;;10.60;47.40;;;;;;5092693;28;20035;-76
2020/12/28 10:10:06;;;;;;;29.25;14.40;;;10.70;47.30;;;;;;5091355;28;20025;-80
2020/12/28 10:12:32;;;;;;;25.88;12.18;;;10.70;47.00;;;;;;5092017;28;20032;-82
2020/12/28 10:14:58;;;;;;;18.85;9.60;;;10.70;47.00;;;;;;5078348;28;20025;-84
2020/12/28 10:17:24;;;;;;;16.50;9.00;;;10.70;47.00;;;;;;5071491;28;20025;-84
2020/12/28 10:19:49;;;;;;;20.88;9.55;;;10.80;47.00;;;;;;5071305;28;20021;-77
2020/12/28 10:22:15;;;;;;;16.33;9.02;;;10.80;46.80;;;;;;5071133;28;20045;-83
2020/12/28 10:24:41;;;;;;;17.00;9.18;;;10.80;46.80;;;;;;5084760;28;20024;-85
2020/12/28 10:27:07;;;;;;;21.40;9.02;;;10.90;47.00;;;;;;5090907;28;20048;-76
2020/12/28 10:29:33;;;;;;;23.77;8.75;;;10.90;46.60;;;;;;5091360;28;20044;-80
2020/12/28 10:31:59;;;;;;;23.33;8.32;;;10.90;46.40;;;;;;5091799;28;20397;-76
2020/12/28 10:34:26;;;;;;;22.05;8.93;;;10.90;46.70;;;;;;5080224;28;20020;-84
2020/12/28 10:36:52;;;;;;;18.23;7.68;;;11.00;46.30;;;;;;5077359;28;20020;-82
2020/12/28 10:39:19;;;;;;;13.65;6.45;;;11.00;46.40;;;;;;5076883;28;20013;-85
2020/12/28 10:41:44;;;;;;;18.77;7.38;;;11.00;46.20;;;;;;5076892;28;20024;-81
2020/12/28 10:44:10;;;;;;;17.58;8.63;;;11.10;46.10;;;;;;5076005;28;20024;-76
2020/12/28 10:46:37;;;;;;;19.60;7.70;;;11.10;46.00;;;;;;5065600;28;20079;-75
2020/12/28 10:49:07;;;;;;;21.80;8.88;;;11.10;46.00;;;;;;5075408;28;20495;-80
2020/12/28 10:51:36;;;;;;;16.33;8.10;;;11.20;45.70;;;;;;5066033;28;20036;-75
2020/12/28 10:54:02;;;;;;;15.98;8.05;;;11.20;45.70;;;;;;5057384;28;20036;-76
2020/12/28 10:56:29;;;;;;;13.68;7.13;;;11.20;45.80;;;;;;5056861;28;20107;-81
2020/12/28 10:58:56;;;;;;;21.00;9.10;;;11.20;45.80;;;;;;5056698;28;20131;-78
2020/12/28 11:01:25;;;;;;;14.30;8.27;;;11.30;45.40;;;;;;5056581;28;20033;-79
2020/12/28 11:03:55;;;;;;;18.33;8.38;;;11.30;45.30;;;;;;5056760;28;20527;-82
2020/12/28 11:06:22;;;;;;;20.15;7.28;;;11.30;45.20;;;;;;5056623;28;20025;-81
2020/12/28 11:08:48;;;;;;;14.30;7.20;;;11.30;45.20;;;;;;5056925;28;20041;-84
2020/12/28 11:11:18;;;;;;;14.45;6.85;;;11.30;45.20;;;;;;5056660;28;20455;-85
2020/12/28 11:13:46;;;;;;;11.05;5.82;;;11.30;44.50;;;;;;5059452;28;20056;-84
2020/12/28 11:16:13;;;;;;;6.80;3.63;;;11.30;44.10;;;;;;5075567;28;20039;-83
2020/12/28 11:18:39;;;;;;;7.60;3.45;;;11.30;42.90;;;;;;5076523;28;20016;-81
2020/12/28 11:21:05;;;;;;;19.15;8.55;;;11.30;42.70;;;;;;5075706;28;20376;-86
2020/12/28 11:23:58;;;;;;;6.22;3.47;;;11.30;42.10;;;;;;5074534;28;20029;-84
2020/12/28 11:26:17;;;;;;;5.45;2.88;;;11.30;41.90;;;;;;5076729;28;20078;-73
2020/12/28 11:28:43;;;;;;;5.63;3.30;;;11.30;41.90;;;;;;5076496;28;20494;-80
2020/12/28 11:31:12;;;;;;;7.10;3.42;;;11.30;41.20;;;;;;5076687;28;20059;-76
2020/12/28 11:33:38;;;;;;;6.55;3.08;;;11.30;41.30;;;;;;5076393;28;20385;-85
2020/12/28 11:36:04;;;;;;;8.75;2.80;;;11.30;41.60;;;;;;5076769;28;20028;-88
2020/12/28 11:38:29;;;;;;;6.45;2.80;;;11.30;40.90;;;;;;5073254;28;20020;-76
2020/12/28 11:40:55;;;;;;;8.25;3.33;;;11.30;40.70;;;;;;5076796;28;20082;-82
2020/12/28 11:43:21;;;;;;;5.55;2.65;;;11.20;40.20;;;;;;5076685;28;20111;-83
2020/12/28 11:45:46;;;;;;;7.50;2.95;;;11.20;40.30;;;;;;5055457;28;20474;-79
2020/12/28 11:48:12;;;;;;;9.82;3.60;;;11.20;40.50;;;;;;5056473;28;20021;-84
2020/12/28 11:50:38;;;;;;;5.47;3.28;;;11.20;40.30;;;;;;5055008;28;20025;-80
2020/12/28 11:53:03;;;;;;;5.15;2.90;;;11.10;40.10;;;;;;5067048;28;20040;-82
2020/12/28 11:56:01;;;;;;;7.00;3.58;;;11.10;40.10;;;;;;5057083;28;20060;-75
2020/12/28 11:58:16;;;;;;;5.00;3.10;;;11.00;39.90;;;;;;5073041;28;20063;-74
2020/12/28 12:00:41;;;;;;;6.38;3.40;;;11.00;40.50;;;;;;5073735;28;20028;-79
2020/12/28 12:03:07;;;;;;;5.95;3.45;;;11.00;40.10;;;;;;5058369;28;20041;-77
2020/12/28 12:05:34;;;;;;;5.30;2.83;;;10.90;40.20;;;;;;5058337;28;20462;-80
2020/12/28 12:08:00;;;;;;;8.63;2.78;;;10.90;40.10;;;;;;5055999;28;20021;-84
2020/12/28 12:10:26;;;;;;;5.03;3.10;;;10.90;40.20;;;;;;5057784;28;20470;-79
2020/12/28 12:12:51;;;;;;;5.68;3.17;;;10.90;40.40;;;;;;5061482;28;20464;-80
2020/12/28 12:15:17;;;;;;;5.93;2.90;;;10.90;40.50;;;;;;5055806;28;20029;-82
2020/12/28 12:17:43;;;;;;;6.90;3.05;;;11.00;40.60;;;;;;5055619;28;20032;-80
2020/12/28 12:20:08;;;;;;;14.20;3.63;;;11.00;40.60;;;;;;5055310;28;20049;-76
2020/12/28 12:22:34;;;;;;;7.32;3.85;;;11.00;40.50;;;;;;5054700;28;20045;-84
2020/12/28 12:25:00;;;;;;;8.07;3.25;;;11.00;40.20;;;;;;5063731;28;20143;-80
2020/12/28 12:27:26;;;;;;;6.30;3.20;;;11.00;40.10;;;;;;5075939;28;20024;-86
2020/12/28 12:29:51;;;;;;;5.25;2.97;;;11.10;40.20;;;;;;5072347;28;20024;-84
2020/12/28 12:32:17;;;;;;;7.43;2.85;;;11.10;39.60;;;;;;5070238;28;20029;-81
2020/12/28 12:34:43;;;;;;;8.68;3.28;;;11.10;39.70;;;;;;5054925;28;20039;-78
2020/12/28 12:37:10;;;;;;;10.43;3.65;;;11.20;39.80;;;;;;5054898;28;20021;-76
2020/12/28 12:39:35;;;;;;;7.00;3.38;;;11.20;39.70;;;;;;5053899;28;20389;-79
2020/12/28 12:42:01;;;;;;;6.72;3.17;;;11.30;39.70;;;;;;5054297;28;20029;-81
2020/12/28 12:44:27;;;;;;;6.35;2.60;;;11.30;39.40;;;;;;5053347;28;20028;-85
2020/12/28 12:46:53;;;;;;;4.47;2.67;;;11.40;39.60;;;;;;5056561;28;20033;-81
2020/12/28 12:49:18;;;;;;;6.18;2.95;;;11.30;39.30;;;;;;5054700;28;20021;-77